createdAt,value
2023-09-24T00:00:45.297Z,15.55
2023-09-24T00:02:47.676Z,15.61
2023-09-24T00:04:50.068Z,15.50
2023-09-24T00:06:52.285Z,15.54
2023-09-24T00:08:54.544Z,15.62
2023-09-24T00:10:57.550Z,15.55
2023-09-24T00:13:00.438Z,15.63
2023-09-24T00:15:02.746Z,15.58
2023-09-24T00:17:05.505Z,15.57
2023-09-24T00:19:08.105Z,15.68
2023-09-24T00:21:12.248Z,15.68
2023-09-24T00:23:16.369Z,15.67
2023-09-24T00:25:18.716Z,15.68
2023-09-24T00:27:21.063Z,15.68
2023-09-24T00:29:23.343Z,15.65
2023-09-24T00:31:27.106Z,15.65
2023-09-24T00:33:31.031Z,15.55
2023-09-24T00:35:33.378Z,15.65
2023-09-24T00:37:35.672Z,15.73
2023-09-24T00:39:38.444Z,15.68
2023-09-24T00:41:40.727Z,15.61
2023-09-24T00:43:45.046Z,15.68
2023-09-24T00:45:47.829Z,15.73
2023-09-24T00:47:50.858Z,15.72
2023-09-24T00:49:55.903Z,15.72
2023-09-24T00:51:58.824Z,15.65
2023-09-24T00:54:01.362Z,15.73
2023-09-24T00:56:03.744Z,15.72
2023-09-24T00:58:07.328Z,15.69
2023-09-24T01:00:13.615Z,15.67
2023-09-24T01:02:18.416Z,15.63
2023-09-24T01:04:20.871Z,15.65
2023-09-24T01:06:23.339Z,15.66
2023-09-24T01:08:27.075Z,15.63
2023-09-24T01:10:29.329Z,15.58
2023-09-24T01:12:31.758Z,15.64
2023-09-24T01:14:34.094Z,15.68
2023-09-24T01:16:39.297Z,15.65
2023-09-24T01:18:43.448Z,15.59
2023-09-24T01:20:46.209Z,15.58
2023-09-24T01:22:50.089Z,15.60
2023-09-24T01:24:52.292Z,15.60
2023-09-24T01:26:54.459Z,15.61
2023-09-24T01:28:56.993Z,15.61
2023-09-24T01:30:59.842Z,15.61
2023-09-24T01:33:03.123Z,15.55
2023-09-24T01:35:07.674Z,15.57
2023-09-24T01:37:10.821Z,15.58
2023-09-24T01:39:17.431Z,15.68
2023-09-24T01:41:21.218Z,15.74
2023-09-24T01:43:23.511Z,15.67
2023-09-24T01:45:28.175Z,15.71
2023-09-24T01:47:30.579Z,15.74
2023-09-24T01:49:33.398Z,15.78
2023-09-24T01:51:35.673Z,15.78
2023-09-24T01:53:40.004Z,15.84
2023-09-24T01:55:42.434Z,15.88
2023-09-24T01:57:45.462Z,15.93
2023-09-24T01:59:47.856Z,15.88
2023-09-24T02:01:50.108Z,15.90
2023-09-24T02:03:52.548Z,15.87
2023-09-24T02:05:54.851Z,15.90
2023-09-24T02:07:57.840Z,15.93
2023-09-24T02:10:00.235Z,15.90
2023-09-24T02:12:02.679Z,15.93
2023-09-24T02:14:05.834Z,15.95
2023-09-24T02:16:08.515Z,15.97
2023-09-24T02:18:11.446Z,15.96
2023-09-24T02:20:25.154Z,15.97
2023-09-24T02:22:27.492Z,15.93
2023-09-24T02:24:29.658Z,15.93
2023-09-24T02:26:32.993Z,15.97
2023-09-24T02:28:35.312Z,15.99
2023-09-24T02:30:38.502Z,15.97
2023-09-24T02:32:42.263Z,16.02
2023-09-24T02:34:46.120Z,16.01
2023-09-24T02:36:48.301Z,16.02
2023-09-24T02:38:51.507Z,16.00
2023-09-24T02:40:57.349Z,16.05
2023-09-24T02:43:01.841Z,16.10
2023-09-24T02:45:06.038Z,16.13
2023-09-24T02:47:08.328Z,16.12
2023-09-24T02:49:10.711Z,16.15
2023-09-24T02:51:14.142Z,16.19
2023-09-24T02:53:17.382Z,16.14
2023-09-24T02:55:20.464Z,16.19
2023-09-24T02:57:22.810Z,16.21
2023-09-24T02:59:25.607Z,16.21
2023-09-24T03:01:28.346Z,16.26
2023-09-24T03:03:30.953Z,16.25
2023-09-24T03:05:33.720Z,16.30
2023-09-24T03:07:37.783Z,16.33
2023-09-24T03:09:40.200Z,16.40
2023-09-24T03:11:42.369Z,16.41
2023-09-24T03:13:44.721Z,16.43
2023-09-24T03:15:46.943Z,16.40
2023-09-24T03:17:49.372Z,16.50
2023-09-24T03:19:51.664Z,16.51
2023-09-24T03:21:54.245Z,16.49
2023-09-24T03:23:56.530Z,16.51
2023-09-24T03:25:58.883Z,16.54
2023-09-24T03:28:03.049Z,16.58
2023-09-24T03:30:07.704Z,16.61
2023-09-24T03:32:09.904Z,16.62
2023-09-24T03:34:12.329Z,16.62
2023-09-24T03:36:14.484Z,16.58
2023-09-24T03:38:17.413Z,16.60
2023-09-24T03:40:21.063Z,16.64
2023-09-24T03:42:23.897Z,16.61
2023-09-24T03:44:26.118Z,16.68
2023-09-24T03:46:29.201Z,16.69
2023-09-24T03:48:31.517Z,16.69
2023-09-24T03:50:33.778Z,16.71
2023-09-24T03:52:36.663Z,16.66
2023-09-24T03:54:40.105Z,16.66
2023-09-24T03:56:43.537Z,16.64
2023-09-24T03:58:45.825Z,16.71
2023-09-24T04:00:48.371Z,16.67
2023-09-24T04:02:51.676Z,16.67
2023-09-24T04:04:55.109Z,16.63
2023-09-24T04:06:57.245Z,16.70
2023-09-24T04:08:59.527Z,16.68
2023-09-24T04:11:02.129Z,16.68
2023-09-24T04:13:04.642Z,16.72
2023-09-24T04:15:07.778Z,16.67
2023-09-24T04:17:10.990Z,16.71
2023-09-24T04:19:13.374Z,16.70
2023-09-24T04:21:17.180Z,16.72
2023-09-24T04:23:19.429Z,16.74
2023-09-24T04:25:23.290Z,16.73
2023-09-24T04:27:26.782Z,16.74
2023-09-24T04:29:29.367Z,16.75
2023-09-24T04:31:31.685Z,16.66
2023-09-24T04:33:34.084Z,16.68
2023-09-24T04:35:36.450Z,16.76
2023-09-24T04:37:40.703Z,16.70
2023-09-24T04:39:45.422Z,16.71
2023-09-24T04:41:49.004Z,16.69
2023-09-24T04:43:51.202Z,16.67
2023-09-24T04:45:53.460Z,16.67
2023-09-24T04:47:55.746Z,16.69
2023-09-24T04:49:58.152Z,16.67
2023-09-24T04:52:00.322Z,16.67
2023-09-24T04:54:04.857Z,16.67
2023-09-24T04:56:09.026Z,16.67
2023-09-24T04:58:13.172Z,16.66
2023-09-24T05:00:17.861Z,16.66
2023-09-24T05:02:22.822Z,16.65
2023-09-24T05:04:25.382Z,16.66
2023-09-24T05:06:28.968Z,16.69
2023-09-24T05:08:31.290Z,16.66
2023-09-24T05:10:34.227Z,16.74
2023-09-24T05:12:36.823Z,16.74
2023-09-24T05:14:39.105Z,16.68
2023-09-24T05:16:41.405Z,16.74
2023-09-24T05:18:43.917Z,16.73
2023-09-24T05:20:46.210Z,16.78
2023-09-24T05:22:48.451Z,16.74
2023-09-24T05:24:50.628Z,16.82
2023-09-24T05:26:53.028Z,16.84
2023-09-24T05:28:55.418Z,16.83
2023-09-24T05:30:58.753Z,16.85
2023-09-24T05:33:01.084Z,16.90
2023-09-24T05:35:03.779Z,16.87
2023-09-24T05:37:06.047Z,16.92
2023-09-24T05:39:10.610Z,16.95
2023-09-24T05:41:12.882Z,16.93
2023-09-24T05:43:15.508Z,16.87
2023-09-24T05:45:17.830Z,17.01
2023-09-24T05:47:20.704Z,17.08
2023-09-24T05:49:23.004Z,17.09
2023-09-24T05:51:25.184Z,17.12
2023-09-24T05:53:27.305Z,17.07
2023-09-24T05:55:29.592Z,17.12
2023-09-24T05:57:31.987Z,17.15
2023-09-24T05:59:34.410Z,17.19
2023-09-24T06:01:36.778Z,17.20
2023-09-24T06:03:39.115Z,17.14
2023-09-24T06:05:42.250Z,17.23
2023-09-24T06:07:44.488Z,17.20
2023-09-24T06:09:47.673Z,17.24
2023-09-24T06:11:50.774Z,17.23
2023-09-24T06:13:53.239Z,17.16
2023-09-24T06:16:04.459Z,17.17
2023-09-24T06:18:06.840Z,17.09
2023-09-24T06:20:12.225Z,17.20
2023-09-24T06:22:14.424Z,17.26
2023-09-24T06:24:17.043Z,17.34
2023-09-24T06:26:21.908Z,17.36
2023-09-24T06:28:25.516Z,17.42
2023-09-24T06:30:27.906Z,17.38
2023-09-24T06:32:30.759Z,17.40
2023-09-24T06:34:34.233Z,17.42
2023-09-24T06:36:36.513Z,17.42
2023-09-24T06:38:39.563Z,17.46
2023-09-24T06:40:41.878Z,17.49
2023-09-24T06:42:44.263Z,17.51
2023-09-24T06:44:46.589Z,17.60
2023-09-24T06:46:48.848Z,17.50
2023-09-24T06:48:53.584Z,17.50
2023-09-24T06:50:55.926Z,17.56
2023-09-24T06:52:58.485Z,17.61
2023-09-24T06:55:01.185Z,17.64
2023-09-24T06:57:04.326Z,17.62
2023-09-24T06:59:10.989Z,17.58
2023-09-24T07:01:13.281Z,17.65
2023-09-24T07:03:15.683Z,17.64
2023-09-24T07:05:20.968Z,17.63
2023-09-24T07:07:23.713Z,17.60
2023-09-24T07:09:26.071Z,17.64
2023-09-24T07:11:34.585Z,17.67
2023-09-24T07:13:36.841Z,17.68
2023-09-24T07:15:39.034Z,17.68
2023-09-24T07:17:41.825Z,17.77
2023-09-24T07:19:44.177Z,17.79
2023-09-24T07:21:47.863Z,17.81
2023-09-24T07:23:55.469Z,17.72
2023-09-24T07:25:59.011Z,17.75
2023-09-24T07:28:01.323Z,17.77
2023-09-24T07:30:03.996Z,17.82
2023-09-24T07:32:06.448Z,17.82
2023-09-24T07:34:10.599Z,17.86
2023-09-24T07:36:29.863Z,17.92
2023-09-24T07:38:33.889Z,17.90
2023-09-24T07:40:36.298Z,17.90
2023-09-24T07:42:40.252Z,17.97
2023-09-24T07:44:45.323Z,17.99
2023-09-24T07:46:50.031Z,18.00
2023-09-24T07:48:52.259Z,18.00
2023-09-24T07:50:56.274Z,18.04
2023-09-24T07:52:58.792Z,18.02
2023-09-24T07:55:01.192Z,18.08
2023-09-24T07:57:03.647Z,18.08
2023-09-24T07:59:06.010Z,18.09
2023-09-24T08:01:11.322Z,18.16
2023-09-24T08:03:13.838Z,18.17
2023-09-24T08:05:16.905Z,18.27
2023-09-24T08:07:19.264Z,18.34
2023-09-24T08:09:26.837Z,18.38
2023-09-24T08:11:30.753Z,18.44
2023-09-24T08:13:32.993Z,18.45
2023-09-24T08:15:36.188Z,18.42
2023-09-24T08:17:38.843Z,18.41
2023-09-24T08:19:41.259Z,18.52
2023-09-24T08:21:43.654Z,18.50
2023-09-24T08:23:58.711Z,18.54
2023-09-24T08:26:04.753Z,18.53
2023-09-24T08:28:07.081Z,18.51
2023-09-24T08:30:09.935Z,18.45
2023-09-24T08:32:12.271Z,18.49
2023-09-24T08:34:14.502Z,18.50
2023-09-24T08:36:17.363Z,18.56
2023-09-24T08:38:19.665Z,18.52
2023-09-24T08:40:22.076Z,18.58
2023-09-24T08:42:24.678Z,18.58
2023-09-24T08:44:29.803Z,18.65
2023-09-24T08:46:32.697Z,18.66
2023-09-24T08:48:35.744Z,18.58
2023-09-24T08:50:41.032Z,18.72
2023-09-24T08:52:46.483Z,18.71
2023-09-24T08:54:50.491Z,18.79
2023-09-24T08:56:52.844Z,18.71
2023-09-24T08:58:55.722Z,18.79
2023-09-24T09:00:58.153Z,18.86
2023-09-24T09:03:05.620Z,18.95
2023-09-24T09:05:13.235Z,18.86
2023-09-24T09:07:17.344Z,18.95
2023-09-24T09:09:29.875Z,19.06
2023-09-24T09:11:42.884Z,19.09
2023-09-24T09:13:49.002Z,19.12
2023-09-24T09:16:10.873Z,19.12
2023-09-24T09:18:24.640Z,19.15
2023-09-24T09:20:42.629Z,19.28
2023-09-24T09:22:48.364Z,19.24
2023-09-24T09:25:05.787Z,19.30
2023-09-24T09:27:09.589Z,19.40
2023-09-24T09:29:22.843Z,19.40
2023-09-24T09:31:24.901Z,19.35
2023-09-24T09:33:29.386Z,19.35
2023-09-24T09:35:37.550Z,19.34
2023-09-24T09:37:40.335Z,19.25
2023-09-24T09:39:42.378Z,19.31
2023-09-24T09:41:46.737Z,19.26
2023-09-24T09:43:49.919Z,19.33
2023-09-24T09:45:53.904Z,19.34
2023-09-24T09:47:58.900Z,19.30
2023-09-24T09:50:01.546Z,19.45
2023-09-24T09:52:03.887Z,19.42
2023-09-24T09:54:08.147Z,19.45
2023-09-24T09:56:11.449Z,19.43
2023-09-24T09:58:23.707Z,19.43
2023-09-24T10:00:35.760Z,19.37
2023-09-24T10:02:40.301Z,19.54
2023-09-24T10:04:43.041Z,19.44
2023-09-24T10:06:44.820Z,19.50
2023-09-24T10:08:50.447Z,19.58
2023-09-24T10:10:52.509Z,19.65
2023-09-24T10:12:54.216Z,19.49
2023-09-24T10:14:58.240Z,19.64
2023-09-24T10:17:23.833Z,19.64
2023-09-24T10:19:49.191Z,19.60
2023-09-24T10:21:50.955Z,19.57
2023-09-24T10:23:53.355Z,19.65
2023-09-24T10:25:55.695Z,19.70
2023-09-24T10:28:11.012Z,19.56
2023-09-24T10:30:14.348Z,19.70
2023-09-24T10:32:23.052Z,19.72
2023-09-24T10:34:25.548Z,19.69
2023-09-24T10:36:33.199Z,19.69
2023-09-24T10:39:06.969Z,19.68
2023-09-24T10:41:09.677Z,19.72
2023-09-24T10:43:13.904Z,19.85
2023-09-24T10:45:15.681Z,19.82
2023-09-24T10:47:35.343Z,19.80
2023-09-24T10:49:37.208Z,19.80
2023-09-24T10:51:38.952Z,19.86
2023-09-24T10:53:40.802Z,19.98
2023-09-24T10:55:44.101Z,19.90
2023-09-24T10:57:54.258Z,19.77
2023-09-24T10:59:56.107Z,19.85
2023-09-24T11:01:58.167Z,19.87
2023-09-24T11:04:00.312Z,19.86
2023-09-24T11:06:03.342Z,19.85
2023-09-24T11:08:05.220Z,19.95
2023-09-24T11:10:07.496Z,19.95
2023-09-24T11:12:09.899Z,20.05
2023-09-24T11:14:33.797Z,20.01
2023-09-24T11:16:35.549Z,19.99
2023-09-24T11:18:37.415Z,20.05
2023-09-24T11:20:53.653Z,19.96
2023-09-24T11:22:57.674Z,19.98
2023-09-24T11:25:13.332Z,20.00
2023-09-24T11:27:15.033Z,20.00
2023-09-24T11:29:16.836Z,20.03
2023-09-24T11:31:27.521Z,20.07
2023-09-24T11:33:29.196Z,20.09
2023-09-24T11:35:38.724Z,20.09
2023-09-24T11:37:58.001Z,20.11
2023-09-24T11:40:00.043Z,20.18
2023-09-24T11:42:02.049Z,20.09
2023-09-24T11:44:07.149Z,20.22
2023-09-24T11:46:19.595Z,20.20
2023-09-24T11:48:27.520Z,20.24
2023-09-24T11:50:30.735Z,20.33
2023-09-24T11:52:33.157Z,20.19
2023-09-24T11:54:34.984Z,20.30
2023-09-24T11:56:36.746Z,20.30
2023-09-24T11:58:39.226Z,20.21
2023-09-24T12:00:46.064Z,20.22
2023-09-24T12:02:47.947Z,20.23
2023-09-24T12:04:49.775Z,20.28
2023-09-24T12:06:51.542Z,20.25
2023-09-24T12:08:53.485Z,20.26
2023-09-24T12:11:04.731Z,20.24
2023-09-24T12:13:07.369Z,20.45
2023-09-24T12:15:09.457Z,20.43
2023-09-24T12:17:11.180Z,20.53
2023-09-24T12:19:12.964Z,20.34
2023-09-24T12:21:15.006Z,20.51
2023-09-24T12:23:16.813Z,20.57
2023-09-24T12:25:18.660Z,20.45
2023-09-24T12:27:20.426Z,20.43
2023-09-24T12:29:22.341Z,20.32
2023-09-24T12:31:24.090Z,20.26
2023-09-24T12:33:26.037Z,20.29
2023-09-24T12:35:27.832Z,20.34
2023-09-24T12:37:30.209Z,20.30
2023-09-24T12:39:32.146Z,20.26
2023-09-24T12:41:33.947Z,20.36
2023-09-24T12:43:35.661Z,20.37
2023-09-24T12:45:38.184Z,20.28
2023-09-24T12:47:42.676Z,20.39
2023-09-24T12:49:44.572Z,20.35
2023-09-24T12:51:47.119Z,20.39
2023-09-24T12:53:49.943Z,20.45
2023-09-24T12:55:51.628Z,20.52
2023-09-24T12:57:53.344Z,20.63
2023-09-24T12:59:55.406Z,20.70
2023-09-24T13:01:57.245Z,20.70
2023-09-24T13:03:59.104Z,20.60
2023-09-24T13:06:00.995Z,20.59
2023-09-24T13:08:02.950Z,20.68
2023-09-24T13:10:17.739Z,20.66
2023-09-24T13:12:19.771Z,20.75
2023-09-24T13:14:21.698Z,20.74
2023-09-24T13:16:24.588Z,20.62
2023-09-24T13:18:26.617Z,20.57
2023-09-24T13:20:32.221Z,20.52
2023-09-24T13:22:34.239Z,20.56
2023-09-24T13:24:40.930Z,20.65
2023-09-24T13:26:53.541Z,20.49
2023-09-24T13:28:55.317Z,20.72
2023-09-24T13:31:00.355Z,20.75
2023-09-24T13:33:02.206Z,20.68
2023-09-24T13:35:10.492Z,20.67
2023-09-24T13:37:12.811Z,20.66
2023-09-24T13:39:14.809Z,20.79
2023-09-24T13:41:16.969Z,20.77
2023-09-24T13:43:18.749Z,20.68
2023-09-24T13:45:20.462Z,20.77
2023-09-24T13:47:22.462Z,20.76
2023-09-24T13:49:24.493Z,20.65
2023-09-24T13:51:27.330Z,20.66
2023-09-24T13:53:29.344Z,20.78
2023-09-24T13:55:38.188Z,20.80
2023-09-24T13:57:40.878Z,20.93
2023-09-24T13:59:42.894Z,20.98
2023-09-24T14:01:44.766Z,20.93
2023-09-24T14:03:46.778Z,20.98
2023-09-24T14:05:49.033Z,21.01
2023-09-24T14:08:16.655Z,21.01
2023-09-24T14:10:44.605Z,20.98
2023-09-24T14:12:47.923Z,21.01
2023-09-24T14:14:50.647Z,21.05
2023-09-24T14:16:53.798Z,21.07
2023-09-24T14:18:56.359Z,21.03
2023-09-24T14:20:58.324Z,21.03
2023-09-24T14:23:00.702Z,21.11
2023-09-24T14:25:02.947Z,21.24
2023-09-24T14:27:04.976Z,21.31
2023-09-24T14:29:06.812Z,21.39
2023-09-24T14:31:13.358Z,21.44
2023-09-24T14:33:15.768Z,21.57
2023-09-24T14:35:18.164Z,21.56
2023-09-24T14:37:32.935Z,21.45
2023-09-24T14:39:35.153Z,21.51
2023-09-24T14:41:37.546Z,21.47
2023-09-24T14:43:40.136Z,21.46
2023-09-24T14:45:42.840Z,21.25
2023-09-24T14:47:44.704Z,21.21
2023-09-24T14:50:00.230Z,21.09
2023-09-24T14:52:15.074Z,21.18
2023-09-24T14:54:16.851Z,21.05
2023-09-24T14:56:24.846Z,21.06
2023-09-24T14:58:28.586Z,21.07
2023-09-24T15:00:47.184Z,20.78
2023-09-24T15:02:49.048Z,20.88
2023-09-24T15:05:01.118Z,20.92
2023-09-24T15:07:08.441Z,20.89
2023-09-24T15:09:10.517Z,20.97
2023-09-24T15:11:13.373Z,21.07
2023-09-24T15:13:15.201Z,21.02
2023-09-24T15:15:21.247Z,20.98
2023-09-24T15:17:23.145Z,20.95
2023-09-24T15:19:25.125Z,20.78
2023-09-24T15:21:28.314Z,20.97
2023-09-24T15:23:30.791Z,20.99
2023-09-24T15:25:32.788Z,21.00
2023-09-24T15:27:34.584Z,20.99
2023-09-24T15:29:36.675Z,20.87
2023-09-24T15:31:38.524Z,20.78
2023-09-24T15:33:40.371Z,20.83
2023-09-24T15:35:42.564Z,20.57
2023-09-24T15:37:44.760Z,20.64
2023-09-24T15:39:48.075Z,20.51
2023-09-24T15:41:51.400Z,20.44
2023-09-24T15:43:53.413Z,20.52
2023-09-24T15:45:59.021Z,20.39
2023-09-24T15:48:04.628Z,20.22
2023-09-24T15:50:08.606Z,20.37
2023-09-24T15:52:10.405Z,20.31
2023-09-24T15:54:12.219Z,20.22
2023-09-24T15:56:14.112Z,20.31
2023-09-24T15:58:17.198Z,20.28
2023-09-24T16:00:20.142Z,20.17
2023-09-24T16:02:22.214Z,20.18
2023-09-24T16:04:24.140Z,20.23
2023-09-24T16:06:26.042Z,20.25
2023-09-24T16:08:27.910Z,20.05
2023-09-24T16:10:34.275Z,20.13
2023-09-24T16:12:36.277Z,20.07
2023-09-24T16:14:38.258Z,20.01
2023-09-24T16:16:40.057Z,19.86
2023-09-24T16:18:41.838Z,19.93
2023-09-24T16:20:44.302Z,19.94
2023-09-24T16:22:48.536Z,19.97
2023-09-24T16:24:54.920Z,19.81
2023-09-24T16:26:59.928Z,19.86
2023-09-24T16:29:01.840Z,19.80
2023-09-24T16:31:06.956Z,19.76
2023-09-24T16:33:09.102Z,19.65
2023-09-24T16:35:10.970Z,19.57
2023-09-24T16:37:12.861Z,19.62
2023-09-24T16:39:17.424Z,19.65
2023-09-24T16:41:19.359Z,19.72
2023-09-24T16:43:21.223Z,19.58
2023-09-24T16:45:23.144Z,19.48
2023-09-24T16:47:24.976Z,19.40
2023-09-24T16:49:28.762Z,19.50
2023-09-24T16:51:31.639Z,19.54
2023-09-24T16:53:36.948Z,19.59
2023-09-24T16:55:38.690Z,19.62
2023-09-24T16:57:40.443Z,19.70
2023-09-24T16:59:42.371Z,19.62
2023-09-24T17:01:44.985Z,19.80
2023-09-24T17:03:48.713Z,19.89
2023-09-24T17:05:50.875Z,19.92
2023-09-24T17:07:52.777Z,19.94
2023-09-24T17:09:59.575Z,19.80
2023-09-24T17:12:07.813Z,19.68
2023-09-24T17:14:09.806Z,19.74
2023-09-24T17:16:20.734Z,19.68
2023-09-24T17:18:22.699Z,19.65
2023-09-24T17:20:30.105Z,19.76
2023-09-24T17:22:34.673Z,19.74
2023-09-24T17:24:36.539Z,19.69
2023-09-24T17:26:38.461Z,19.56
2023-09-24T17:28:41.353Z,19.61
2023-09-24T17:30:43.198Z,19.57
2023-09-24T17:32:45.792Z,19.63
2023-09-24T17:34:52.497Z,19.66
2023-09-24T17:37:13.662Z,19.56
2023-09-24T17:39:16.096Z,19.58
2023-09-24T17:41:18.062Z,19.62
2023-09-24T17:43:19.988Z,19.56
2023-09-24T17:45:21.701Z,19.51
2023-09-24T17:47:23.542Z,19.47
2023-09-24T17:49:25.419Z,19.38
2023-09-24T17:51:27.115Z,19.41
2023-09-24T17:53:28.889Z,19.42
2023-09-24T17:55:30.674Z,19.40
2023-09-24T17:57:32.490Z,19.37
2023-09-24T17:59:35.326Z,19.41
2023-09-24T18:01:37.152Z,19.45
2023-09-24T18:03:41.775Z,19.45
2023-09-24T18:05:45.384Z,19.39
2023-09-24T18:07:47.440Z,19.32
2023-09-24T18:09:57.504Z,19.17
2023-09-24T18:12:03.079Z,19.17
2023-09-24T18:14:05.297Z,19.22
2023-09-24T18:16:07.315Z,19.26
2023-09-24T18:18:09.613Z,19.23
2023-09-24T18:20:11.949Z,19.28
2023-09-24T18:22:13.646Z,19.27
2023-09-24T18:24:15.538Z,19.21
2023-09-24T18:26:17.285Z,19.23
2023-09-24T18:28:19.449Z,19.15
2023-09-24T18:30:21.180Z,19.04
2023-09-24T18:32:23.051Z,19.11
2023-09-24T18:34:25.001Z,19.07
2023-09-24T18:36:26.923Z,19.17
2023-09-24T18:38:29.679Z,18.98
2023-09-24T18:40:40.462Z,19.08
2023-09-24T18:42:42.071Z,19.10
2023-09-24T18:44:43.843Z,19.09
2023-09-24T18:46:45.613Z,19.06
2023-09-24T18:48:47.403Z,19.06
2023-09-24T18:50:50.319Z,19.08
2023-09-24T18:52:52.985Z,19.13
2023-09-24T18:54:54.765Z,19.13
2023-09-24T18:57:01.956Z,19.16
2023-09-24T18:59:05.288Z,19.13
2023-09-24T19:01:08.623Z,19.07
2023-09-24T19:03:10.653Z,19.11
2023-09-24T19:05:14.444Z,19.12
2023-09-24T19:07:16.123Z,18.97
2023-09-24T19:09:17.815Z,18.94
2023-09-24T19:11:19.571Z,18.99
2023-09-24T19:13:21.706Z,19.03
2023-09-24T19:15:23.511Z,18.97
2023-09-24T19:17:25.519Z,18.99
2023-09-24T19:19:27.393Z,19.07
2023-09-24T19:21:29.189Z,18.92
2023-09-24T19:23:32.453Z,18.97
2023-09-24T19:25:35.862Z,18.92
2023-09-24T19:27:37.837Z,18.77
2023-09-24T19:29:39.619Z,18.85
2023-09-24T19:31:43.083Z,18.82
2023-09-24T19:33:45.361Z,18.79
2023-09-24T19:35:47.238Z,18.73
2023-09-24T19:37:48.985Z,18.79
2023-09-24T19:39:51.140Z,18.81
2023-09-24T19:41:56.014Z,18.78
2023-09-24T19:43:57.785Z,18.73
2023-09-24T19:46:00.003Z,18.79
2023-09-24T19:48:02.372Z,18.71
2023-09-24T19:50:05.719Z,18.75
2023-09-24T19:52:08.205Z,18.80
2023-09-24T19:54:11.132Z,18.75
2023-09-24T19:56:12.987Z,18.81
2023-09-24T19:58:14.841Z,18.85
2023-09-24T20:00:16.823Z,18.69
2023-09-24T20:02:18.841Z,18.74
2023-09-24T20:04:21.023Z,18.63
2023-09-24T20:06:22.801Z,18.66
2023-09-24T20:08:34.207Z,18.75
2023-09-24T20:10:41.894Z,18.75
2023-09-24T20:12:43.737Z,18.66
2023-09-24T20:14:45.609Z,18.68
2023-09-24T20:16:49.465Z,18.70
2023-09-24T20:18:51.871Z,18.69
2023-09-24T20:20:54.081Z,18.61
2023-09-24T20:22:55.846Z,18.63
2023-09-24T20:25:04.855Z,18.54
2023-09-24T20:27:07.318Z,18.61
2023-09-24T20:29:10.190Z,18.63
2023-09-24T20:31:12.051Z,18.67
2023-09-24T20:33:29.834Z,18.67
2023-09-24T20:35:34.942Z,18.64
2023-09-24T20:37:38.232Z,18.71
2023-09-24T20:39:42.151Z,18.66
2023-09-24T20:41:44.064Z,18.73
2023-09-24T20:43:47.366Z,18.73
2023-09-24T20:45:59.154Z,18.67
2023-09-24T20:48:02.472Z,18.72
2023-09-24T20:50:05.633Z,18.62
2023-09-24T20:52:07.325Z,18.58
2023-09-24T20:54:09.578Z,18.60
2023-09-24T20:56:11.474Z,18.61
2023-09-24T20:58:13.935Z,18.67
2023-09-24T21:00:35.198Z,18.59
2023-09-24T21:02:40.083Z,18.63
2023-09-24T21:04:42.248Z,18.67
2023-09-24T21:06:44.023Z,18.67
2023-09-24T21:08:45.879Z,18.67
2023-09-24T21:10:47.718Z,18.69
2023-09-24T21:12:49.488Z,18.63
2023-09-24T21:14:56.231Z,18.65
2023-09-24T21:16:58.087Z,18.65
2023-09-24T21:19:00.039Z,18.74
2023-09-24T21:21:01.990Z,18.60
2023-09-24T21:23:03.911Z,18.65
2023-09-24T21:25:06.487Z,18.66
2023-09-24T21:27:09.002Z,18.72
2023-09-24T21:29:11.930Z,18.70
2023-09-24T21:31:13.643Z,18.74
2023-09-24T21:33:15.596Z,18.77
2023-09-24T21:35:17.633Z,18.80
2023-09-24T21:37:19.444Z,18.72
2023-09-24T21:39:21.662Z,18.77
2023-09-24T21:41:24.195Z,18.70
2023-09-24T21:43:31.364Z,18.82
2023-09-24T21:45:33.347Z,18.71
2023-09-24T21:47:35.294Z,18.79
2023-09-24T21:49:37.084Z,18.81
2023-09-24T21:51:38.964Z,18.65
2023-09-24T21:53:40.970Z,18.72
2023-09-24T21:55:42.754Z,18.72
2023-09-24T21:57:44.466Z,18.69
2023-09-24T21:59:47.067Z,18.69
2023-09-24T22:01:55.285Z,18.71
2023-09-24T22:03:58.578Z,18.77
2023-09-24T22:06:00.633Z,18.68
2023-09-24T22:08:02.648Z,18.63
2023-09-24T22:10:06.172Z,18.63
2023-09-24T22:12:08.082Z,18.65
2023-09-24T22:14:11.944Z,18.67
2023-09-24T22:16:19.703Z,18.62
2023-09-24T22:18:21.657Z,18.63
2023-09-24T22:20:31.458Z,18.67
2023-09-24T22:22:33.212Z,18.73
2023-09-24T22:24:35.062Z,18.69
2023-09-24T22:26:36.871Z,18.68
2023-09-24T22:28:38.591Z,18.70
2023-09-24T22:30:40.956Z,18.68
2023-09-24T22:32:44.518Z,18.81
2023-09-24T22:34:46.404Z,18.84
2023-09-24T22:36:48.386Z,18.83
2023-09-24T22:38:57.668Z,18.89
2023-09-24T22:40:59.446Z,18.98
2023-09-24T22:43:11.856Z,18.93
2023-09-24T22:45:21.887Z,18.93
2023-09-24T22:47:23.648Z,19.05
2023-09-24T22:49:25.342Z,19.06
2023-09-24T22:51:27.236Z,18.99
2023-09-24T22:53:29.249Z,19.04
2023-09-24T22:55:31.021Z,19.05
2023-09-24T22:57:32.944Z,19.07
2023-09-24T22:59:34.747Z,18.97
2023-09-24T23:01:36.496Z,19.11
2023-09-24T23:03:38.228Z,19.17
2023-09-24T23:05:43.384Z,19.28
2023-09-24T23:07:46.607Z,19.26
2023-09-24T23:09:48.347Z,19.27
2023-09-24T23:11:50.354Z,19.27
2023-09-24T23:13:52.020Z,19.26
2023-09-24T23:15:54.368Z,19.23
2023-09-24T23:17:56.177Z,19.17
2023-09-24T23:19:58.190Z,19.29
2023-09-24T23:22:00.083Z,19.24
2023-09-24T23:24:02.498Z,19.35
2023-09-24T23:26:07.765Z,19.37
2023-09-24T23:28:09.993Z,19.27
2023-09-24T23:30:12.911Z,19.32
2023-09-24T23:32:15.057Z,19.32
2023-09-24T23:34:16.782Z,19.31
2023-09-24T23:36:18.784Z,19.40
2023-09-24T23:38:21.112Z,19.28
2023-09-24T23:40:24.403Z,19.38
2023-09-24T23:42:26.692Z,19.27
2023-09-24T23:44:29.633Z,19.33
2023-09-24T23:46:31.738Z,19.38
2023-09-24T23:48:36.768Z,19.33
2023-09-24T23:50:38.600Z,19.36
2023-09-24T23:52:40.350Z,19.32
2023-09-24T23:54:42.143Z,19.36
2023-09-24T23:56:44.043Z,19.33
2023-09-24T23:58:46.277Z,19.35
